Aviation Digital Data Service (ADDS)

Output produced by METARs form (0445 UTC 21 September 2018)
found at http://www.aviationweather.gov/metar/data/
 
KCXY 210356Z AUTO 13009KT 10SM OVC016 22/17 A3021 RMK AO2 SLP228 T02220172
KCXY 210256Z AUTO 14007KT 10SM OVC017 23/18 A3021 RMK AO2 SLP228 T02280178 51014
KCXY 210156Z AUTO 12008KT 10SM BKN019 OVC039 23/18 A3020 RMK AO2 SLP226 T02280183
KCXY 210110Z AUTO 09008KT 10SM BKN019 BKN040 23/19 A3019 RMK AO2 T02330189
KCXY 210056Z 11008KT 10SM FEW019 23/19 A3019 RMK AO2 SLP222 T02330189
KCXY 202356Z 11008KT 10SM BKN035 OVC045 24/19 A3017 RMK AO2 SLP215 T02390189 10283 20239 53006
KCXY 202256Z 12008KT 10SM SCT037 26/19 A3016 RMK AO2 SLP212 T02560194
KCXY 202156Z 14009KT 10SM FEW037 SCT060 27/19 A3015 RMK AO2 SLP208 T02720189
KCXY 202056Z VRB04KT 10SM SCT045 28/18 A3015 RMK AO2 SLP209 T02780178 56007
KCXY 201956Z 19004KT 10SM SCT046 28/18 A3015 RMK AO2 SLP209 T02830178
KCXY 201856Z VRB04KT 10SM BKN036 27/17 A3016 RMK AO2 SLP211 T02720172
KCXY 201756Z 10007KT 10SM SCT027 BKN035 27/18 A3017 RMK AO2 SLP216 T02670183 10272 20194 58016
KCXY 201656Z 10005KT 10SM SCT022 25/18 A3019 RMK AO2 SLP224 T02500183
KCXY 201556Z 07007KT 10SM SCT017 24/17 A3020 RMK AO2 SLP227 T02390172
KCXY 201530Z 09007KT 10SM SCT017 BKN044 24/17 A3021 RMK AO2 T02390172
KCXY 201456Z 08004KT 10SM BKN017 OVC044 23/16 A3022 RMK AO2 SLP232 T02280161 51013
KCXY 201356Z 00000KT 10SM OVC019 21/16 A3021 RMK AO2 SLP230 T02110156
KCXY 201256Z 00000KT 10SM OVC018 21/16 A3019 RMK AO2 SLP222 T02060156
KCXY 201217Z 00000KT 10SM BKN021 OVC042 20/16 A3018 RMK AO2 T02000161
KCXY 201156Z 00000KT 10SM OVC042 19/16 A3018 RMK AO2 SLP219 T01940161 10194 20167 53025
KCXY 201145Z 00000KT 10SM OVC041 19/16 A3017 RMK AO2 T01890161
KCXY 201056Z 00000KT 10SM BKN021 OVC041 18/15 A3015 RMK AO2 SLP208 T01780150
KCXY 200956Z AUTO 00000KT 10SM CLR 17/15 A3012 RMK AO2 SLP199 T01720150
KCXY 200856Z AUTO 00000KT 10SM CLR 18/16 A3010 RMK AO2 SLP192 T01780156 53006
KCXY 200756Z AUTO 22003KT 10SM CLR 18/16 A3009 RMK AO2 SLP189 T01780156
KCXY 200656Z AUTO 00000KT 10SM CLR 18/16 A3009 RMK AO2 SLP188 T01830161
KCXY 200556Z AUTO 22003KT 10SM CLR 19/16 A3008 RMK AO2 SLP186 T01890161 10267 20183 51009
KCXY 200456Z AUTO 00000KT 10SM CLR 19/17 A3008 RMK AO2 SLP184 T01940167 403000194
KCXY 200356Z AUTO 00000KT 10SM CLR 19/17 A3007 RMK AO2 SLP181 T01940167
KCXY 200256Z AUTO 00000KT 10SM CLR 21/18 A3006 RMK AO2 SLP177 T02060178 51019
KCXY 200156Z AUTO 22004KT 10SM CLR 21/18 A3005 RMK AO2 SLP174 T02110178
KCXY 200056Z 22003KT 10SM CLR 23/18 A3002 RMK AO2 SLP164 T02280183
KCXY 192356Z 01005KT 10SM CLR 27/17 A3000 RMK AO2 SLP157 T02670167 10300 20267 53016
KCXY 192256Z 36005KT 10SM CLR 27/17 A2998 RMK AO2 SLP150 T02720172
KCXY 192156Z 34004KT 10SM CLR 29/17 A2996 RMK AO2 SLP142 T02890172
KCXY 192056Z 33005KT 10SM FEW060 29/17 A2995 RMK AO2 SLP141 T02940172 56002
KCXY 191956Z 34007KT 10SM FEW041 SCT120 29/17 A2995 RMK AO2 SLP141 T02940172
KCXY 191856Z 34004KT 10SM SCT041 29/17 A2995 RMK AO2 SLP142 T02940167
KCXY 191756Z 32008KT 10SM BKN040 29/17 A2996 RMK AO2 SLP143 T02940167 10294 20211 58005
KCXY 191656Z 01005KT 10SM SCT033 28/17 A2996 RMK AO2 SLP145 T02830172